ブリスベン の空港の天気 - METARとTAF

ブリスベン空港 ( YBBN / BNE ) - オーストラリア クイーンズランド州ブリスベン
飛行場実況気象(Metar)
観測時間07/29 13:00 AEST (07/29 03:00 UTC)
風向・風速西 8m/s
視程10km以上
天気現象
なし
気温25℃
湿度39%
気圧1011hPa
METARYBBN 290300Z 26016KT CAVOK 25/10 Q1011
過去の天気等 Google飛行場航空写真 Wunderground天気予報

過去48時間のMETAR

飛行場予報(TAF)
発表時間: 7/29 12:27 AEST (7/29 02:27 UTC)
予報対象時間: 29日13時 AEST ~ 30日16時 AEST
風向・風速西南西 8m/s 瞬間風速 13m/s
視程10km以上
なし
29日17時 AEST から
風向・風速西南西 7m/s
視程10km以上
なし
29日19時 AEST から
風向・風速南南西 4m/s
視程10km以上
なし
30日12時 AEST から
風向・風速東南東 5m/s
視程10km以上
なし
30日15時 AEST から
風向・風速東北東 5m/s
視程10km以上
少しの雲 雲底高度 1220m
TAF YBBN 290227Z 2903/3006 25015G25KT CAVOK
FM290700 25014KT CAVOK
FM290900 21007KT CAVOK
FM300200 12010KT CAVOK
FM300500 06010KT 9999 FEW040